createdAt,value
2023-04-22T00:02:16.414Z,58.88
2023-04-22T00:04:45.564Z,58.94
2023-04-22T00:07:13.966Z,59.03
2023-04-22T00:09:41.466Z,59.04
2023-04-22T00:12:08.415Z,59.08
2023-04-22T00:14:36.214Z,59.06
2023-04-22T00:17:02.983Z,59.09
2023-04-22T00:19:31.394Z,59.14
2023-04-22T00:21:58.143Z,59.10
2023-04-22T00:24:25.128Z,59.21
2023-04-22T00:26:51.855Z,59.14
2023-04-22T00:29:18.642Z,59.12
2023-04-22T00:31:45.542Z,59.24
2023-04-22T00:34:12.319Z,59.24
2023-04-22T00:36:39.077Z,59.23
2023-04-22T00:39:06.032Z,59.39
2023-04-22T00:41:33.492Z,59.40
2023-04-22T00:44:00.257Z,59.51
2023-04-22T00:46:27.193Z,59.81
2023-04-22T00:48:53.977Z,60.00
2023-04-22T00:51:20.608Z,60.02
2023-04-22T00:53:47.315Z,60.07
2023-04-22T00:56:14.098Z,59.94
2023-04-22T00:58:40.781Z,59.98
2023-04-22T01:01:07.529Z,60.08
2023-04-22T01:03:35.922Z,60.39
2023-04-22T01:06:03.107Z,60.66
2023-04-22T01:08:30.083Z,60.68
2023-04-22T01:10:57.264Z,60.54
2023-04-22T01:13:24.241Z,60.40
2023-04-22T01:15:51.512Z,60.28
2023-04-22T01:18:18.311Z,60.25
2023-04-22T01:20:45.160Z,60.08
2023-04-22T01:23:18.410Z,60.12
2023-04-22T01:25:45.957Z,60.11
2023-04-22T01:28:13.028Z,60.12
2023-04-22T01:30:40.393Z,60.08
2023-04-22T01:33:08.684Z,60.15
2023-04-22T01:35:38.796Z,60.16
2023-04-22T01:38:06.474Z,60.18
2023-04-22T01:40:33.691Z,60.14
2023-04-22T01:43:00.614Z,60.11
2023-04-22T01:45:27.537Z,60.09
2023-04-22T01:47:54.496Z,60.15
2023-04-22T01:50:21.309Z,60.07
2023-04-22T01:52:48.133Z,60.05
2023-04-22T01:55:14.952Z,59.95
2023-04-22T01:57:43.576Z,60.21
2023-04-22T02:00:10.843Z,60.18
2023-04-22T02:02:40.973Z,60.28
2023-04-22T02:05:08.156Z,60.33
2023-04-22T02:07:35.831Z,60.32
2023-04-22T02:10:05.726Z,60.30
2023-04-22T02:12:32.604Z,60.29
2023-04-22T02:14:59.452Z,60.23
2023-04-22T02:17:26.723Z,60.34
2023-04-22T02:19:53.608Z,60.32
2023-04-22T02:22:21.517Z,60.35
2023-04-22T02:24:50.725Z,60.22
2023-04-22T02:27:17.468Z,60.29
2023-04-22T02:29:45.567Z,60.47
2023-04-22T02:32:12.573Z,60.80
2023-04-22T02:34:39.733Z,61.07
2023-04-22T02:37:06.384Z,61.16
2023-04-22T02:39:34.205Z,61.09
2023-04-22T02:42:01.215Z,61.09
2023-04-22T02:44:28.075Z,61.16
2023-04-22T02:46:55.099Z,61.21
2023-04-22T02:49:21.826Z,61.21
2023-04-22T02:51:48.757Z,61.10
2023-04-22T02:54:15.552Z,60.98
2023-04-22T02:56:42.488Z,60.99
2023-04-22T02:59:09.093Z,61.10
2023-04-22T03:01:35.840Z,61.35
2023-04-22T03:04:03.677Z,61.47
2023-04-22T03:06:31.255Z,61.62
2023-04-22T03:08:58.395Z,61.54
2023-04-22T03:11:25.957Z,61.43
2023-04-22T03:13:52.843Z,61.43
2023-04-22T03:16:25.046Z,61.39
2023-04-22T03:18:52.065Z,61.39
2023-04-22T03:21:18.755Z,61.30
2023-04-22T03:23:45.692Z,61.23
2023-04-22T03:26:13.106Z,61.08
2023-04-22T03:28:40.048Z,61.05
2023-04-22T03:31:07.384Z,60.79
2023-04-22T03:33:34.782Z,60.59
2023-04-22T03:36:07.375Z,60.40
2023-04-22T03:38:34.479Z,60.18
2023-04-22T03:41:01.229Z,59.88
2023-04-22T03:43:47.173Z,59.55
2023-04-22T03:46:15.309Z,59.47
2023-04-22T03:48:47.672Z,59.44
2023-04-22T03:51:23.581Z,59.35
2023-04-22T03:53:51.962Z,59.28
2023-04-22T03:56:20.544Z,59.23
2023-04-22T03:58:47.527Z,59.27
2023-04-22T04:01:15.496Z,59.60
2023-04-22T04:03:44.687Z,59.81
2023-04-22T04:06:11.682Z,59.85
2023-04-22T04:08:38.663Z,59.79
2023-04-22T04:11:05.394Z,59.74
2023-04-22T04:13:32.705Z,59.59
2023-04-22T04:16:11.298Z,59.21
2023-04-22T04:18:39.537Z,58.37
2023-04-22T04:21:06.489Z,57.29
2023-04-22T04:23:35.293Z,56.91
2023-04-22T04:26:02.187Z,55.96
2023-04-22T04:28:31.947Z,55.56
2023-04-22T04:30:59.517Z,55.47
2023-04-22T04:33:26.995Z,55.22
2023-04-22T04:35:53.697Z,55.27
2023-04-22T04:38:24.472Z,55.26
2023-04-22T04:40:52.109Z,55.20
2023-04-22T04:43:25.194Z,55.07
2023-04-22T04:46:00.294Z,54.69
2023-04-22T04:48:35.387Z,54.06
2023-04-22T04:51:07.267Z,53.18
2023-04-22T04:53:37.673Z,52.20
2023-04-22T04:56:04.496Z,51.09
2023-04-22T04:58:31.164Z,50.75
2023-04-22T05:01:15.668Z,50.47
2023-04-22T05:03:43.194Z,49.38
2023-04-22T05:06:11.768Z,49.04
2023-04-22T05:08:39.158Z,48.88
2023-04-22T05:11:08.358Z,48.54
2023-04-22T05:13:35.091Z,48.81
2023-04-22T05:16:02.215Z,48.18
2023-04-22T05:18:29.308Z,47.34
2023-04-22T05:21:00.216Z,47.49
2023-04-22T05:23:27.130Z,47.60
2023-04-22T05:25:55.196Z,47.87
2023-04-22T05:28:23.728Z,47.62
2023-04-22T05:30:53.872Z,47.56
2023-04-22T05:33:20.824Z,47.30
2023-04-22T05:35:47.655Z,46.64
2023-04-22T05:38:14.715Z,46.80
2023-04-22T05:40:41.553Z,47.17
2023-04-22T05:43:09.683Z,47.13
2023-04-22T05:45:37.017Z,47.36
2023-04-22T05:48:04.125Z,47.31
2023-04-22T05:50:33.817Z,47.33
2023-04-22T05:53:05.724Z,46.49
2023-04-22T05:55:32.648Z,46.42
2023-04-22T05:57:59.396Z,46.46
2023-04-22T06:00:39.883Z,46.22
2023-04-22T06:03:13.767Z,46.07
2023-04-22T06:05:41.711Z,45.71
2023-04-22T06:08:08.567Z,45.89
2023-04-22T06:10:35.511Z,46.27
2023-04-22T06:13:02.597Z,46.10
2023-04-22T06:15:29.634Z,45.88
2023-04-22T06:17:56.556Z,45.34
2023-04-22T06:20:23.413Z,45.01
2023-04-22T06:22:50.362Z,45.18
2023-04-22T06:25:17.070Z,45.04
2023-04-22T06:27:43.735Z,45.21
2023-04-22T06:30:11.441Z,45.02
2023-04-22T06:32:40.307Z,44.81
2023-04-22T06:35:07.584Z,44.67
2023-04-22T06:37:34.732Z,44.79
2023-04-22T06:40:03.560Z,44.70
2023-04-22T06:42:53.586Z,43.94
2023-04-22T06:45:26.024Z,43.65
2023-04-22T06:48:01.646Z,43.12
2023-04-22T06:50:40.818Z,42.30
2023-04-22T06:53:09.314Z,41.93
2023-04-22T06:55:36.016Z,41.35
2023-04-22T06:58:03.019Z,41.77
2023-04-22T07:00:29.783Z,42.42
2023-04-22T07:02:57.686Z,41.83
2023-04-22T07:05:24.675Z,41.70
2023-04-22T07:07:51.591Z,42.06
2023-04-22T07:10:20.261Z,41.23
2023-04-22T07:13:06.998Z,39.38
2023-04-22T07:15:34.614Z,39.71
2023-04-22T07:18:01.597Z,40.00
2023-04-22T07:20:28.451Z,40.11
2023-04-22T07:22:55.146Z,40.06
2023-04-22T07:25:21.798Z,40.00
2023-04-22T07:27:48.554Z,40.26
2023-04-22T07:30:15.378Z,40.09
2023-04-22T07:32:42.082Z,40.06
2023-04-22T07:35:08.931Z,39.51
2023-04-22T07:37:35.603Z,39.00
2023-04-22T07:40:02.456Z,38.47
2023-04-22T07:42:29.458Z,38.62
2023-04-22T07:44:56.098Z,38.35
2023-04-22T07:47:22.823Z,38.38
2023-04-22T07:49:49.689Z,37.74
2023-04-22T07:52:16.441Z,37.93
2023-04-22T07:54:43.310Z,37.63
2023-04-22T07:57:10.110Z,37.93
2023-04-22T07:59:36.955Z,38.23
2023-04-22T08:02:03.919Z,38.19
2023-04-22T08:04:30.901Z,38.17
2023-04-22T08:06:57.637Z,38.27
2023-04-22T08:09:25.069Z,38.18
2023-04-22T08:11:51.935Z,37.51
2023-04-22T08:14:18.646Z,36.68
2023-04-22T08:16:45.312Z,36.96
2023-04-22T08:19:11.970Z,37.43
2023-04-22T08:21:39.108Z,37.39
2023-04-22T08:24:05.918Z,37.72
2023-04-22T08:26:32.780Z,37.84
2023-04-22T08:29:00.212Z,36.28
2023-04-22T08:31:26.843Z,36.67
2023-04-22T08:33:53.514Z,36.77
2023-04-22T08:36:22.329Z,36.35
2023-04-22T08:38:50.109Z,37.38
2023-04-22T08:41:18.229Z,37.73
2023-04-22T08:43:45.704Z,37.12
2023-04-22T08:46:14.829Z,37.02
2023-04-22T08:48:41.498Z,36.71
2023-04-22T08:51:08.226Z,36.28
2023-04-22T08:53:35.078Z,36.69
2023-04-22T08:56:01.749Z,36.72
2023-04-22T08:58:28.791Z,36.78
2023-04-22T09:00:55.586Z,36.89
2023-04-22T09:03:22.786Z,36.77
2023-04-22T09:05:49.446Z,36.81
2023-04-22T09:08:16.064Z,35.98
2023-04-22T09:10:42.791Z,35.88
2023-04-22T09:13:11.190Z,36.07
2023-04-22T09:15:37.826Z,36.17
2023-04-22T09:18:05.022Z,36.31
2023-04-22T09:20:33.302Z,36.31
2023-04-22T09:23:04.470Z,36.88
2023-04-22T09:25:32.650Z,37.29
2023-04-22T09:27:59.352Z,36.91
2023-04-22T09:30:33.966Z,35.70
2023-04-22T09:33:03.083Z,35.84
2023-04-22T09:35:31.445Z,34.52
2023-04-22T09:37:59.738Z,34.17
2023-04-22T09:40:27.097Z,34.00
2023-04-22T09:42:55.577Z,33.89
2023-04-22T09:45:38.726Z,34.03
2023-04-22T09:48:09.101Z,33.99
2023-04-22T09:50:37.136Z,33.56
2023-04-22T09:53:07.939Z,32.60
2023-04-22T09:55:41.156Z,31.41
2023-04-22T09:58:15.501Z,32.27
2023-04-22T10:00:53.612Z,32.29
2023-04-22T10:03:20.484Z,31.96
2023-04-22T10:05:47.356Z,32.31
2023-04-22T10:08:15.137Z,32.42
2023-04-22T10:10:42.178Z,31.58
2023-04-22T10:13:09.029Z,30.93
2023-04-22T10:15:48.229Z,31.63
2023-04-22T10:18:18.540Z,30.93
2023-04-22T10:20:45.256Z,31.44
2023-04-22T10:23:18.241Z,31.63
2023-04-22T10:25:48.752Z,32.19
2023-04-22T10:28:16.268Z,30.72
2023-04-22T10:30:43.027Z,30.06
2023-04-22T10:33:27.973Z,28.61
2023-04-22T10:36:17.208Z,27.07
2023-04-22T10:38:49.775Z,28.01
2023-04-22T10:41:16.520Z,28.31
2023-04-22T10:56:18.290Z,26.32
2023-04-22T10:58:46.478Z,25.94
2023-04-22T11:01:15.160Z,25.77
2023-04-22T11:03:43.375Z,25.58
2023-04-22T11:06:16.415Z,25.98
2023-04-22T11:08:48.602Z,26.00
2023-04-22T11:11:17.791Z,25.51
2023-04-22T11:13:47.665Z,26.40
2023-04-22T11:16:15.804Z,27.05
2023-04-22T11:18:46.690Z,27.66
2023-04-22T11:21:14.765Z,28.41
2023-04-22T11:23:50.890Z,28.15
2023-04-22T11:26:19.064Z,27.71
2023-04-22T11:28:47.632Z,28.18
2023-04-22T11:31:15.824Z,27.66
2023-04-22T11:33:44.158Z,27.17
2023-04-22T11:36:12.692Z,26.32
2023-04-22T11:38:40.843Z,25.84
2023-04-22T11:41:08.935Z,25.10
2023-04-22T11:43:46.823Z,24.81
2023-04-22T11:46:14.938Z,24.75
2023-04-22T11:48:43.089Z,25.11
2023-04-22T11:51:11.849Z,25.13
2023-04-22T11:53:50.538Z,24.90
2023-04-22T11:56:18.923Z,24.52
2023-04-22T11:58:47.441Z,24.36
2023-04-22T12:01:15.592Z,24.50
2023-04-22T12:03:43.772Z,24.58
2023-04-22T12:06:11.933Z,24.68
2023-04-22T12:08:42.611Z,25.09
2023-04-22T12:11:11.621Z,25.20
2023-04-22T12:13:42.583Z,25.56
2023-04-22T12:16:12.243Z,25.58
2023-04-22T12:18:41.925Z,25.40
2023-04-22T12:21:10.792Z,25.76
2023-04-22T12:23:43.736Z,26.11
2023-04-22T12:26:13.013Z,26.11
2023-04-22T12:28:41.911Z,26.00
2023-04-22T12:31:10.801Z,25.06
2023-04-22T12:33:39.178Z,24.44
2023-04-22T12:36:07.583Z,24.13
2023-04-22T12:38:35.713Z,24.33
2023-04-22T12:41:04.564Z,24.26
2023-04-22T12:43:36.375Z,24.76
2023-04-22T12:46:05.568Z,24.67
2023-04-22T12:48:34.099Z,24.61
2023-04-22T12:51:02.157Z,24.93
2023-04-22T12:53:30.280Z,25.18
2023-04-22T12:55:58.502Z,24.75
2023-04-22T12:58:26.738Z,24.40
2023-04-22T13:00:54.931Z,24.64
2023-04-22T13:03:23.446Z,24.75
2023-04-22T13:05:52.524Z,23.84
2023-04-22T13:08:21.339Z,23.21
2023-04-22T13:10:50.084Z,23.49
2023-04-22T13:13:19.482Z,23.53
2023-04-22T13:15:53.568Z,23.51
2023-04-22T13:18:23.404Z,23.98
2023-04-22T13:20:51.743Z,23.70
2023-04-22T13:23:21.862Z,23.28
2023-04-22T13:25:50.365Z,22.93
2023-04-22T13:28:18.767Z,22.88
2023-04-22T13:30:46.829Z,22.92
2023-04-22T13:33:15.798Z,22.95
2023-04-22T13:35:44.142Z,22.90
2023-04-22T13:38:12.551Z,22.03
2023-04-22T13:40:40.652Z,21.02
2023-04-22T13:43:09.377Z,20.06
2023-04-22T13:45:37.524Z,18.57
2023-04-22T13:48:05.691Z,17.42
2023-04-22T13:50:34.369Z,15.80
2023-04-22T13:53:04.074Z,15.67
2023-04-22T13:55:32.581Z,15.68
2023-04-22T13:58:01.353Z,14.64
2023-04-22T14:00:29.867Z,14.30
2023-04-22T14:02:58.499Z,13.70
2023-04-22T14:05:27.176Z,13.78
2023-04-22T14:07:55.971Z,13.71
2023-04-22T14:10:26.625Z,13.59
2023-04-22T14:12:56.276Z,13.96
2023-04-22T14:15:24.481Z,13.11
2023-04-22T14:17:53.553Z,12.92
2023-04-22T14:20:21.693Z,13.12
2023-04-22T14:22:49.753Z,13.41
2023-04-22T14:25:17.903Z,12.69
2023-04-22T14:27:46.285Z,12.54
2023-04-22T14:30:14.999Z,12.41
2023-04-22T14:32:44.297Z,12.57
2023-04-22T14:35:12.353Z,12.36
2023-04-22T14:37:41.831Z,12.02
2023-04-22T14:40:10.196Z,11.92
2023-04-22T14:42:38.436Z,11.52
2023-04-22T14:45:07.216Z,11.47
2023-04-22T14:47:35.487Z,10.89
2023-04-22T14:50:03.873Z,11.08
2023-04-22T14:52:33.097Z,10.86
2023-04-22T14:55:11.874Z,10.52
2023-04-22T14:57:48.955Z,10.04
2023-04-22T15:00:17.194Z,10.02
2023-04-22T15:02:45.450Z,10.30
2023-04-22T15:05:13.641Z,10.51
2023-04-22T15:07:41.754Z,10.88
2023-04-22T15:10:09.822Z,10.86
2023-04-22T15:12:37.945Z,10.77
2023-04-22T15:15:06.832Z,10.67
2023-04-22T15:17:35.015Z,10.69
2023-04-22T15:20:05.738Z,10.70
2023-04-22T15:22:35.031Z,10.74
2023-04-22T15:25:03.762Z,10.65
2023-04-22T15:27:32.010Z,11.06
2023-04-22T15:30:00.123Z,11.49
2023-04-22T15:32:28.220Z,11.49
2023-04-22T15:34:56.457Z,11.55
2023-04-22T15:37:24.636Z,11.75
2023-04-22T15:39:52.755Z,11.68
2023-04-22T15:42:20.760Z,11.23
2023-04-22T15:44:48.858Z,11.25
2023-04-22T15:47:17.886Z,11.30
2023-04-22T15:49:45.986Z,11.72
2023-04-22T15:52:14.169Z,11.95
2023-04-22T15:54:42.314Z,12.17
2023-04-22T15:57:10.878Z,12.22
2023-04-22T15:59:39.457Z,12.62
2023-04-22T16:02:08.816Z,12.95
2023-04-22T16:04:37.386Z,13.25
2023-04-22T16:07:06.144Z,13.64
2023-04-22T16:09:34.209Z,14.54
2023-04-22T16:12:02.268Z,15.68
2023-04-22T16:14:30.389Z,16.66
2023-04-22T16:16:58.488Z,17.19
2023-04-22T16:19:26.623Z,17.41
2023-04-22T16:21:55.754Z,17.41
2023-04-22T16:24:23.858Z,17.56
2023-04-22T16:26:52.084Z,17.57
2023-04-22T16:29:20.424Z,18.46
2023-04-22T16:31:48.463Z,18.99
2023-04-22T16:34:16.890Z,19.35
2023-04-22T16:36:45.028Z,19.39
2023-04-22T16:39:13.067Z,19.20
2023-04-22T16:41:43.288Z,19.59
2023-04-22T16:44:11.341Z,20.45
2023-04-22T16:46:39.767Z,21.09
2023-04-22T16:49:10.281Z,22.63
2023-04-22T16:51:39.981Z,23.47
2023-04-22T16:54:08.135Z,23.19
2023-04-22T16:56:37.617Z,23.39
2023-04-22T16:59:05.877Z,24.47
2023-04-22T17:01:34.253Z,25.85
2023-04-22T17:04:03.195Z,25.39
2023-04-22T17:06:32.604Z,25.32
2023-04-22T17:09:00.914Z,25.93
2023-04-22T17:11:32.470Z,26.68
2023-04-22T17:14:00.597Z,26.22
2023-04-22T17:16:28.821Z,27.38
2023-04-22T17:18:57.040Z,27.84
2023-04-22T17:21:25.395Z,28.55
2023-04-22T17:23:53.551Z,28.79
2023-04-22T17:26:21.588Z,29.54
2023-04-22T17:28:49.642Z,31.06
2023-04-22T17:31:17.935Z,32.02
2023-04-22T17:33:46.362Z,31.94
2023-04-22T17:36:14.783Z,32.05
2023-04-22T17:38:42.770Z,31.59
2023-04-22T17:41:10.769Z,31.80
2023-04-22T17:43:38.913Z,31.62
2023-04-22T17:46:06.892Z,31.56
2023-04-22T17:48:36.612Z,32.20
2023-04-22T17:51:06.783Z,32.49
2023-04-22T17:53:34.923Z,32.89
2023-04-22T17:56:03.074Z,32.96
2023-04-22T17:58:31.547Z,33.90
2023-04-22T18:00:59.845Z,34.51
2023-04-22T18:03:28.278Z,34.63
2023-04-22T18:05:56.605Z,34.68
2023-04-22T18:08:24.854Z,34.81
2023-04-22T18:10:53.338Z,34.46
2023-04-22T18:13:21.755Z,34.34
2023-04-22T18:15:49.780Z,34.25
2023-04-22T18:18:17.874Z,34.37
2023-04-22T18:20:46.135Z,34.80
2023-04-22T18:23:14.216Z,35.22
2023-04-22T18:25:42.376Z,35.71
2023-04-22T18:28:10.945Z,35.87
2023-04-22T18:30:39.053Z,36.29
2023-04-22T18:33:07.110Z,37.10
2023-04-22T18:35:36.491Z,37.40
2023-04-22T18:38:04.720Z,37.58
2023-04-22T18:40:33.768Z,37.68
2023-04-22T18:43:01.873Z,37.76
2023-04-22T18:45:30.074Z,38.19
2023-04-22T18:47:59.082Z,38.39
2023-04-22T18:50:27.230Z,38.94
2023-04-22T18:52:55.561Z,39.49
2023-04-22T18:55:23.752Z,40.01
2023-04-22T18:57:51.795Z,40.00
2023-04-22T19:00:20.042Z,39.78
2023-04-22T19:02:48.364Z,39.71
2023-04-22T19:05:18.142Z,39.68
2023-04-22T19:07:46.367Z,39.79
2023-04-22T19:10:14.488Z,39.47
2023-04-22T19:12:43.458Z,39.73
2023-04-22T19:15:12.371Z,39.21
2023-04-22T19:17:42.574Z,39.04
2023-04-22T19:20:11.045Z,39.74
2023-04-22T19:22:39.298Z,40.53
2023-04-22T19:25:08.284Z,41.21
2023-04-22T19:27:37.494Z,41.38
2023-04-22T19:30:06.807Z,41.49
2023-04-22T19:32:36.057Z,41.50
2023-04-22T19:35:04.634Z,41.10
2023-04-22T19:37:34.209Z,41.17
2023-04-22T19:40:02.308Z,41.38
2023-04-22T19:42:30.945Z,41.65
2023-04-22T19:44:59.572Z,41.92
2023-04-22T19:47:28.215Z,42.17
2023-04-22T19:49:56.694Z,42.03
2023-04-22T19:52:25.022Z,42.30
2023-04-22T19:54:56.229Z,42.33
2023-04-22T19:57:24.893Z,41.99
2023-04-22T19:59:54.249Z,41.75
2023-04-22T20:02:23.907Z,41.69
2023-04-22T20:04:52.288Z,42.08
2023-04-22T20:07:20.605Z,42.31
2023-04-22T20:09:48.699Z,42.57
2023-04-22T20:12:17.374Z,43.08
2023-04-22T20:14:45.983Z,43.09
2023-04-22T20:17:14.240Z,43.12
2023-04-22T20:19:42.547Z,43.52
2023-04-22T20:22:12.429Z,44.34
2023-04-22T20:24:41.683Z,44.61
2023-04-22T20:27:09.766Z,44.41
2023-04-22T20:29:40.862Z,44.36
2023-04-22T20:32:10.765Z,44.58
2023-04-22T20:34:39.368Z,44.09
2023-04-22T20:37:10.417Z,43.46
2023-04-22T20:39:38.451Z,43.24
2023-04-22T20:42:07.044Z,42.53
2023-04-22T20:44:35.311Z,42.12
2023-04-22T20:47:03.535Z,41.87
2023-04-22T20:49:31.976Z,42.21
2023-04-22T20:52:00.916Z,42.03
2023-04-22T20:54:29.560Z,41.15
2023-04-22T20:56:58.086Z,40.90
2023-04-22T20:59:26.178Z,41.64
2023-04-22T21:01:57.096Z,41.49
2023-04-22T21:04:26.171Z,40.78
2023-04-22T21:06:54.784Z,40.65
2023-04-22T21:09:25.002Z,40.74
2023-04-22T21:11:53.364Z,41.01
2023-04-22T21:14:22.392Z,40.87
2023-04-22T21:16:57.437Z,41.04
2023-04-22T21:19:26.152Z,41.13
2023-04-22T21:21:54.371Z,41.26
2023-04-22T21:24:22.550Z,41.42
2023-04-22T21:26:51.008Z,41.85
2023-04-22T21:29:19.521Z,42.48
2023-04-22T21:32:01.130Z,43.13
2023-04-22T21:34:35.632Z,43.70
2023-04-22T21:37:04.244Z,44.17
2023-04-22T21:39:32.798Z,44.35
2023-04-22T21:42:02.457Z,44.60
2023-04-22T21:44:30.782Z,44.67
2023-04-22T21:46:58.996Z,44.82
2023-04-22T21:49:27.103Z,45.10
2023-04-22T21:51:55.498Z,45.47
2023-04-22T21:54:23.775Z,45.61
2023-04-22T21:56:53.265Z,45.74
2023-04-22T21:59:21.558Z,45.62
2023-04-22T22:01:49.829Z,45.85
2023-04-22T22:04:18.039Z,46.04
2023-04-22T22:06:46.533Z,46.02
2023-04-22T22:09:14.573Z,45.78
2023-04-22T22:11:43.355Z,45.73
2023-04-22T22:14:11.556Z,45.65
2023-04-22T22:16:39.709Z,45.69
2023-04-22T22:19:11.125Z,46.14
2023-04-22T22:21:39.279Z,46.27
2023-04-22T22:24:09.528Z,46.64
2023-04-22T22:26:41.093Z,47.26
2023-04-22T22:29:15.274Z,47.74
2023-04-22T22:31:44.253Z,48.03
2023-04-22T22:34:12.376Z,48.06
2023-04-22T22:36:41.392Z,47.52
2023-04-22T22:39:12.015Z,47.26
2023-04-22T22:41:42.416Z,47.43
2023-04-22T22:44:12.423Z,47.70
2023-04-22T22:46:40.757Z,47.86
2023-04-22T22:49:09.310Z,47.87
2023-04-22T22:51:37.768Z,48.20
2023-04-22T22:54:05.894Z,48.50
2023-04-22T22:56:34.009Z,48.79
2023-04-22T22:59:02.172Z,49.01
2023-04-22T23:14:49.031Z,48.65
2023-04-22T23:17:16.627Z,46.69
2023-04-22T23:19:43.935Z,46.25
2023-04-22T23:22:11.134Z,45.93
2023-04-22T23:24:38.399Z,45.75
2023-04-22T23:27:06.260Z,45.74
2023-04-22T23:29:33.394Z,45.59
2023-04-22T23:32:00.664Z,45.54
2023-04-22T23:34:27.244Z,45.93
2023-04-22T23:36:53.909Z,45.90
2023-04-22T23:39:20.571Z,45.61
2023-04-22T23:41:47.253Z,45.30
2023-04-22T23:44:13.913Z,45.09
2023-04-22T23:46:40.814Z,44.71
2023-04-22T23:49:07.685Z,44.94
2023-04-22T23:51:34.545Z,45.03
2023-04-22T23:54:01.388Z,44.97
2023-04-22T23:56:28.543Z,45.04
2023-04-22T23:58:55.637Z,45.36
